createdAt,value
2019-01-12T00:00:57.415Z,62.96
2019-01-12T00:03:28.725Z,62.29
2019-01-12T00:06:02.187Z,62.13
2019-01-12T00:08:33.361Z,62.20
2019-01-12T00:11:06.929Z,62.54
2019-01-12T00:13:38.231Z,62.13
2019-01-12T00:16:09.592Z,62.78
2019-01-12T00:18:41.015Z,63.40
2019-01-12T00:21:12.266Z,62.80
2019-01-12T00:23:43.515Z,63.64
2019-01-12T00:26:17.224Z,62.96
2019-01-12T00:28:48.348Z,62.13
2019-01-12T00:31:19.422Z,61.68
2019-01-12T00:33:50.723Z,61.85
2019-01-12T00:36:21.981Z,61.15
2019-01-12T00:38:53.335Z,61.85
2019-01-12T00:41:24.527Z,62.38
2019-01-12T00:43:55.558Z,62.13
2019-01-12T00:46:26.846Z,61.77
2019-01-12T00:48:58.024Z,61.58
2019-01-12T00:51:29.099Z,61.35
2019-01-12T00:54:00.404Z,61.23
2019-01-12T00:56:31.524Z,62.30
2019-01-12T00:59:04.693Z,61.73
2019-01-12T01:01:36.063Z,61.06
2019-01-12T01:04:10.206Z,60.16
2019-01-12T01:06:43.432Z,61.01
2019-01-12T01:09:14.429Z,60.92
2019-01-12T01:11:48.413Z,59.99
2019-01-12T01:14:20.728Z,60.26
2019-01-12T01:16:51.927Z,60.44
2019-01-12T01:19:23.133Z,60.44
2019-01-12T01:21:54.257Z,60.27
2019-01-12T01:24:25.641Z,61.11
2019-01-12T01:26:58.451Z,61.07
2019-01-12T01:29:29.730Z,60.41
2019-01-12T01:32:00.954Z,59.72
2019-01-12T01:34:32.318Z,60.22
2019-01-12T01:37:04.748Z,60.17
2019-01-12T01:39:36.088Z,60.57
2019-01-12T01:42:08.647Z,59.81
2019-01-12T01:44:39.969Z,60.04
2019-01-12T01:47:11.256Z,60.04
2019-01-12T01:49:42.510Z,60.27
2019-01-12T01:52:13.786Z,60.99
2019-01-12T01:54:45.026Z,60.96
2019-01-12T01:57:16.277Z,59.90
2019-01-12T01:59:47.620Z,60.69
2019-01-12T02:02:18.973Z,60.79
2019-01-12T02:04:50.140Z,60.56
2019-01-12T02:07:21.356Z,61.00
2019-01-12T02:09:52.915Z,61.33
2019-01-12T02:12:24.069Z,60.55
2019-01-12T02:14:55.254Z,61.35
2019-01-12T02:17:26.340Z,61.39
2019-01-12T02:19:57.646Z,61.15
2019-01-12T02:22:28.976Z,61.38
2019-01-12T02:25:00.441Z,60.26
2019-01-12T02:27:31.502Z,60.26
2019-01-12T02:30:02.757Z,61.50
2019-01-12T02:32:34.079Z,62.05
2019-01-12T02:35:05.697Z,60.51
2019-01-12T02:37:36.958Z,60.52
2019-01-12T02:40:08.348Z,60.35
2019-01-12T02:42:39.634Z,60.86
2019-01-12T02:45:11.293Z,60.64
2019-01-12T02:47:44.364Z,61.23
2019-01-12T02:50:15.588Z,61.03
2019-01-12T02:52:46.980Z,61.57
2019-01-12T02:55:18.147Z,61.23
2019-01-12T02:57:49.498Z,60.94
2019-01-12T03:00:20.998Z,61.86
2019-01-12T03:02:53.878Z,62.37
2019-01-12T03:05:25.064Z,62.02
2019-01-12T03:07:56.142Z,61.54
2019-01-12T03:10:27.488Z,60.35
2019-01-12T03:12:58.673Z,61.31
2019-01-12T03:15:29.960Z,60.94
2019-01-12T03:18:01.097Z,60.45
2019-01-12T03:20:32.496Z,61.27
2019-01-12T03:23:03.678Z,61.04
2019-01-12T03:25:35.015Z,60.73
2019-01-12T03:28:08.318Z,60.05
2019-01-12T03:30:39.710Z,60.23
2019-01-12T03:33:11.036Z,61.13
2019-01-12T03:35:42.355Z,60.22
2019-01-12T03:38:13.480Z,59.90
2019-01-12T03:40:44.852Z,60.03
2019-01-12T03:43:16.116Z,59.87
2019-01-12T03:45:47.407Z,60.51
2019-01-12T03:48:18.734Z,60.85
2019-01-12T03:50:50.009Z,60.22
2019-01-12T03:53:21.272Z,60.37
2019-01-12T03:55:52.569Z,60.91
2019-01-12T03:58:25.228Z,60.83
2019-01-12T04:00:56.600Z,61.21
2019-01-12T04:03:27.858Z,61.33
2019-01-12T04:05:59.102Z,60.24
2019-01-12T04:08:30.425Z,60.21
2019-01-12T04:11:01.906Z,59.18
2019-01-12T04:13:33.046Z,60.67
2019-01-12T04:16:04.496Z,59.22
2019-01-12T04:18:35.797Z,58.98
2019-01-12T04:21:07.118Z,59.12
2019-01-12T04:23:38.440Z,59.12
2019-01-12T04:26:09.766Z,58.89
2019-01-12T04:28:41.049Z,59.28
2019-01-12T04:31:12.138Z,58.99
2019-01-12T04:33:43.318Z,59.71
2019-01-12T04:36:14.613Z,58.93
2019-01-12T04:38:45.869Z,59.13
2019-01-12T04:41:17.135Z,58.50
2019-01-12T04:43:48.350Z,58.64
2019-01-12T04:46:19.661Z,58.66
2019-01-12T04:48:50.824Z,58.48
2019-01-12T04:51:22.056Z,58.84
2019-01-12T04:53:53.391Z,58.00
2019-01-12T04:56:24.621Z,58.06
2019-01-12T04:58:55.872Z,59.10
2019-01-12T05:01:27.142Z,58.72
2019-01-12T05:03:58.252Z,58.21
2019-01-12T05:06:29.593Z,58.46
2019-01-12T05:09:00.764Z,58.80
2019-01-12T05:11:33.514Z,59.44
2019-01-12T05:14:04.721Z,59.29
2019-01-12T05:16:35.867Z,59.87
2019-01-12T05:19:07.144Z,58.89
2019-01-12T05:21:38.320Z,59.46
2019-01-12T05:24:09.652Z,59.08
2019-01-12T05:26:40.826Z,59.14
2019-01-12T05:29:12.000Z,59.07
2019-01-12T05:31:43.384Z,59.49
2019-01-12T05:34:14.523Z,58.88
2019-01-12T05:36:45.812Z,58.88
2019-01-12T05:39:18.208Z,58.90
2019-01-12T05:41:49.437Z,59.73
2019-01-12T05:44:20.482Z,59.65
2019-01-12T05:46:51.642Z,59.68
2019-01-12T05:49:25.090Z,59.51
2019-01-12T05:51:56.171Z,59.47
2019-01-12T05:54:27.354Z,59.98
2019-01-12T05:56:58.573Z,59.14
2019-01-12T05:59:31.829Z,60.10
2019-01-12T06:02:03.099Z,59.64
2019-01-12T06:04:34.256Z,60.06
2019-01-12T06:07:06.509Z,59.67
2019-01-12T06:09:37.787Z,59.14
2019-01-12T06:12:09.061Z,58.31
2019-01-12T06:14:41.157Z,58.72
2019-01-12T06:17:12.455Z,58.41
2019-01-12T06:19:43.766Z,59.53
2019-01-12T06:22:15.160Z,58.87
2019-01-12T06:24:46.307Z,57.41
2019-01-12T06:27:17.404Z,58.45
2019-01-12T06:29:48.593Z,57.97
2019-01-12T06:32:19.922Z,58.57
2019-01-12T06:34:51.051Z,58.07
2019-01-12T06:37:22.211Z,58.06
2019-01-12T06:39:53.363Z,59.54
2019-01-12T06:42:25.951Z,58.38
2019-01-12T06:44:57.097Z,57.81
2019-01-12T06:47:28.371Z,58.06
2019-01-12T06:49:59.597Z,57.64
2019-01-12T06:52:30.691Z,56.51
2019-01-12T06:55:01.969Z,56.65
2019-01-12T06:57:33.232Z,57.39
2019-01-12T07:00:05.955Z,57.62
2019-01-12T07:02:37.063Z,57.60
2019-01-12T07:05:08.799Z,57.25
2019-01-12T07:07:40.110Z,57.83
2019-01-12T07:10:12.135Z,57.94
2019-01-12T07:12:43.462Z,58.42
2019-01-12T07:15:15.079Z,57.94
2019-01-12T07:17:46.406Z,57.55
2019-01-12T07:20:18.177Z,57.62
2019-01-12T07:22:51.786Z,57.72
2019-01-12T07:25:22.964Z,57.33
2019-01-12T07:27:54.248Z,57.33
2019-01-12T07:30:25.569Z,57.32
2019-01-12T07:32:56.764Z,57.38
2019-01-12T07:35:28.131Z,57.55
2019-01-12T07:37:59.284Z,57.81
2019-01-12T07:40:30.327Z,58.45
2019-01-12T07:43:01.499Z,57.72
2019-01-12T07:45:34.426Z,57.34
2019-01-12T07:48:06.034Z,57.75
2019-01-12T07:50:37.565Z,57.20
2019-01-12T07:53:08.966Z,57.60
2019-01-12T07:55:40.150Z,57.55
2019-01-12T07:58:11.330Z,57.07
2019-01-12T08:00:42.555Z,57.16
2019-01-12T08:03:13.899Z,57.76
2019-01-12T08:05:45.120Z,56.80
2019-01-12T08:08:16.280Z,56.29
2019-01-12T08:10:47.725Z,57.14
2019-01-12T08:13:18.857Z,56.59
2019-01-12T08:15:50.025Z,56.64
2019-01-12T08:18:21.344Z,56.54
2019-01-12T08:20:52.504Z,56.95
2019-01-12T08:23:25.839Z,57.25
2019-01-12T08:25:56.597Z,57.10
2019-01-12T08:28:27.899Z,55.79
2019-01-12T08:30:59.239Z,56.24
2019-01-12T08:33:30.741Z,56.55
2019-01-12T08:36:02.234Z,56.23
2019-01-12T08:38:33.431Z,56.67
2019-01-12T08:41:04.674Z,56.82
2019-01-12T08:43:35.857Z,56.40
2019-01-12T08:46:07.210Z,56.19
2019-01-12T08:48:40.439Z,55.76
2019-01-12T08:51:11.789Z,54.44
2019-01-12T08:53:43.100Z,51.00
2019-01-12T08:56:14.447Z,51.00
2019-01-12T08:58:45.991Z,46.10
2019-01-12T09:01:17.142Z,46.10
2019-01-12T09:03:50.469Z,38.70
2019-01-12T09:06:21.672Z,38.70
2019-01-12T09:08:52.967Z,38.39
2019-01-12T09:11:24.238Z,39.87
2019-01-12T09:13:56.846Z,39.41
2019-01-12T09:16:27.990Z,41.54
2019-01-12T09:18:59.247Z,42.34
2019-01-12T09:21:30.454Z,43.57
2019-01-12T09:24:01.512Z,45.83
2019-01-12T09:26:32.838Z,45.83
2019-01-12T09:29:04.506Z,46.93
2019-01-12T09:31:35.759Z,46.93
2019-01-12T09:34:07.068Z,47.47
2019-01-12T09:36:38.260Z,46.84
2019-01-12T09:39:10.388Z,46.99
2019-01-12T09:41:41.484Z,46.99
2019-01-12T09:44:14.229Z,47.24
2019-01-12T09:46:45.333Z,46.55
2019-01-12T09:49:16.717Z,47.21
2019-01-12T09:51:49.497Z,46.09
2019-01-12T09:54:20.702Z,46.09
2019-01-12T09:56:52.062Z,46.08
2019-01-12T09:59:23.267Z,45.14
2019-01-12T10:01:55.519Z,44.94
2019-01-12T10:04:26.716Z,45.88
2019-01-12T10:06:57.902Z,44.26
2019-01-12T10:09:29.197Z,44.26
2019-01-12T10:12:00.313Z,40.04
2019-01-12T10:14:31.764Z,37.06
2019-01-12T10:17:03.048Z,37.06
2019-01-12T10:19:34.257Z,38.01
2019-01-12T10:22:05.717Z,35.74
2019-01-12T10:24:37.038Z,32.50
2019-01-12T10:27:08.350Z,32.20
2019-01-12T10:29:39.616Z,33.65
2019-01-12T10:32:10.709Z,35.71
2019-01-12T10:34:42.026Z,37.79
2019-01-12T10:37:13.266Z,37.12
2019-01-12T10:39:44.509Z,34.46
2019-01-12T10:42:15.922Z,31.62
2019-01-12T10:44:47.175Z,30.44
2019-01-12T10:47:18.282Z,30.31
2019-01-12T10:49:49.493Z,31.94
2019-01-12T10:52:20.653Z,30.41
2019-01-12T10:54:51.960Z,32.37
2019-01-12T10:57:23.714Z,32.88
2019-01-12T10:59:54.889Z,32.30
2019-01-12T11:02:26.195Z,31.79
2019-01-12T11:04:57.524Z,29.42
2019-01-12T11:07:28.822Z,28.75
2019-01-12T11:10:04.096Z,28.00
2019-01-12T11:12:33.103Z,27.95
2019-01-12T11:15:04.793Z,27.91
2019-01-12T11:17:36.065Z,26.82
2019-01-12T11:20:07.831Z,26.27
2019-01-12T11:22:39.191Z,27.11
2019-01-12T11:25:11.788Z,27.72
2019-01-12T11:27:43.144Z,29.21
2019-01-12T11:30:17.780Z,32.58
2019-01-12T11:32:49.163Z,31.93
2019-01-12T11:35:20.428Z,29.03
2019-01-12T11:37:51.653Z,27.45
2019-01-12T11:40:23.184Z,26.92
2019-01-12T11:42:54.479Z,28.65
2019-01-12T11:45:25.917Z,30.28
2019-01-12T11:47:57.136Z,31.63
2019-01-12T11:50:28.427Z,32.85
2019-01-12T11:53:01.126Z,34.51
2019-01-12T11:55:32.517Z,32.85
2019-01-12T11:58:03.831Z,31.58
2019-01-12T12:00:35.115Z,32.22
2019-01-12T12:03:07.983Z,31.91
2019-01-12T12:05:39.324Z,32.73
2019-01-12T12:08:10.354Z,34.31
2019-01-12T12:10:41.656Z,33.95
2019-01-12T12:13:12.929Z,35.71
2019-01-12T12:15:44.184Z,36.85
2019-01-12T12:18:15.636Z,37.30
2019-01-12T12:20:46.635Z,39.32
2019-01-12T12:23:17.712Z,40.90
2019-01-12T12:25:49.051Z,40.81
2019-01-12T12:28:20.386Z,40.68
2019-01-12T12:30:51.679Z,42.22
2019-01-12T12:33:22.812Z,42.22
2019-01-12T12:35:54.209Z,40.65
2019-01-12T12:38:27.053Z,42.76
2019-01-12T12:40:58.409Z,44.06
2019-01-12T12:43:29.503Z,44.06
2019-01-12T12:46:00.783Z,45.86
2019-01-12T12:48:33.491Z,45.86
2019-01-12T12:51:04.636Z,43.67
2019-01-12T12:53:35.834Z,45.81
2019-01-12T12:56:07.140Z,45.81
2019-01-12T12:58:39.286Z,46.64
2019-01-12T13:01:10.665Z,46.64
2019-01-12T13:03:41.932Z,44.83
2019-01-12T13:06:13.245Z,46.66
2019-01-12T13:08:48.388Z,46.66
2019-01-12T13:11:17.470Z,47.63
2019-01-12T13:13:48.634Z,47.78
2019-01-12T13:16:19.853Z,46.09
2019-01-12T13:18:51.101Z,47.41
2019-01-12T13:21:22.355Z,48.53
2019-01-12T13:23:53.654Z,48.53
2019-01-12T13:26:24.985Z,47.67
2019-01-12T13:28:56.118Z,47.55
2019-01-12T13:31:27.416Z,47.66
2019-01-12T13:33:58.485Z,46.25
2019-01-12T13:36:30.041Z,47.14
2019-01-12T13:39:01.327Z,46.58
2019-01-12T13:41:33.427Z,46.43
2019-01-12T13:44:04.658Z,48.03
2019-01-12T13:46:37.105Z,48.16
2019-01-12T13:49:08.121Z,48.08
2019-01-12T13:51:39.407Z,48.52
2019-01-12T13:54:10.648Z,48.52
2019-01-12T13:56:41.770Z,46.97
2019-01-12T13:59:12.987Z,48.64
2019-01-12T14:01:43.964Z,48.64
2019-01-12T14:04:15.097Z,48.74
2019-01-12T14:06:46.280Z,47.95
2019-01-12T14:09:17.552Z,48.37
2019-01-12T14:11:48.816Z,50.08
2019-01-12T14:14:19.996Z,49.91
2019-01-12T14:16:51.290Z,49.77
2019-01-12T14:19:22.520Z,50.06
2019-01-12T14:21:53.788Z,49.98
2019-01-12T14:24:25.002Z,49.73
2019-01-12T14:26:56.302Z,49.70
2019-01-12T14:29:27.602Z,50.71
2019-01-12T14:31:58.774Z,49.96
2019-01-12T14:34:30.055Z,49.98
2019-01-12T14:37:01.235Z,50.22
2019-01-12T14:39:32.575Z,49.97
2019-01-12T14:42:03.879Z,50.55
2019-01-12T14:44:35.192Z,50.96
2019-01-12T14:47:06.495Z,50.61
2019-01-12T14:49:37.899Z,50.96
2019-01-12T14:52:09.389Z,51.16
2019-01-12T14:54:40.526Z,52.08
2019-01-12T14:57:11.816Z,52.48
2019-01-12T14:59:43.042Z,52.56
2019-01-12T15:02:14.473Z,51.88
2019-01-12T15:04:45.886Z,52.85
2019-01-12T15:07:17.242Z,52.52
2019-01-12T15:09:48.433Z,52.39
2019-01-12T15:12:19.622Z,52.22
2019-01-12T15:14:50.949Z,52.37
2019-01-12T15:17:22.157Z,52.75
2019-01-12T15:19:53.546Z,53.61
2019-01-12T15:22:24.674Z,53.54
2019-01-12T15:24:56.082Z,54.14
2019-01-12T15:27:27.372Z,53.70
2019-01-12T15:29:58.534Z,53.17
2019-01-12T15:32:29.789Z,53.09
2019-01-12T15:35:00.956Z,53.45
2019-01-12T15:37:32.255Z,53.39
2019-01-12T15:40:04.045Z,53.34
2019-01-12T15:42:35.246Z,52.93
2019-01-12T15:45:08.311Z,53.26
2019-01-12T15:47:40.440Z,54.39
2019-01-12T15:50:14.955Z,52.74
2019-01-12T15:52:48.093Z,52.86
2019-01-12T15:55:19.742Z,52.78
2019-01-12T15:57:51.418Z,53.24
2019-01-12T16:00:27.493Z,53.20
2019-01-12T16:02:59.267Z,53.21
2019-01-12T16:05:31.563Z,52.53
2019-01-12T16:08:02.830Z,53.53
2019-01-12T16:10:33.987Z,53.58
2019-01-12T16:13:05.241Z,53.76
2019-01-12T16:15:36.489Z,54.17
2019-01-12T16:18:07.880Z,54.17
2019-01-12T16:20:43.025Z,54.13
2019-01-12T16:23:14.863Z,54.16
2019-01-12T16:25:46.131Z,53.89
2019-01-12T16:28:23.193Z,53.89
2019-01-12T16:30:50.414Z,53.98
2019-01-12T16:33:21.731Z,54.70
2019-01-12T16:35:54.345Z,54.95
2019-01-12T16:38:25.526Z,55.28
2019-01-12T16:40:56.891Z,54.73
2019-01-12T16:43:28.072Z,55.30
2019-01-12T16:46:01.408Z,55.63
2019-01-12T16:48:32.268Z,54.90
2019-01-12T16:51:04.692Z,55.76
2019-01-12T16:53:35.997Z,55.58
2019-01-12T16:56:07.209Z,55.67
2019-01-12T16:58:38.509Z,55.07
2019-01-12T17:01:09.715Z,55.54
2019-01-12T17:03:41.014Z,55.61
2019-01-12T17:06:12.355Z,55.85
2019-01-12T17:08:43.705Z,55.59
2019-01-12T17:11:14.982Z,56.20
2019-01-12T17:13:46.269Z,56.12
2019-01-12T17:16:17.648Z,56.39
2019-01-12T17:18:48.892Z,56.24
2019-01-12T17:21:20.117Z,56.28
2019-01-12T17:23:51.469Z,56.39
2019-01-12T17:26:22.840Z,57.17
2019-01-12T17:28:54.284Z,56.65
2019-01-12T17:31:25.622Z,56.70
2019-01-12T17:33:56.886Z,56.67
2019-01-12T17:36:28.144Z,55.95
2019-01-12T17:38:59.442Z,55.87
2019-01-12T17:41:30.662Z,55.90
2019-01-12T17:44:01.928Z,56.26
2019-01-12T17:46:33.156Z,55.95
2019-01-12T17:49:06.162Z,55.62
2019-01-12T17:51:37.469Z,55.06
2019-01-12T17:54:08.760Z,55.41
2019-01-12T17:56:40.067Z,55.48
2019-01-12T17:59:11.259Z,55.79
2019-01-12T18:01:43.767Z,55.06
2019-01-12T18:04:14.938Z,55.52
2019-01-12T18:06:46.264Z,55.13
2019-01-12T18:09:17.451Z,54.84
2019-01-12T18:11:48.664Z,55.11
2019-01-12T18:14:20.083Z,55.05
2019-01-12T18:16:51.385Z,54.18
2019-01-12T18:19:22.659Z,54.39
2019-01-12T18:21:53.943Z,53.91
2019-01-12T18:24:25.129Z,53.99
2019-01-12T18:26:56.369Z,54.08
2019-01-12T18:29:27.652Z,53.15
2019-01-12T18:31:58.871Z,54.10
2019-01-12T18:34:30.027Z,53.24
2019-01-12T18:37:01.313Z,54.09
2019-01-12T18:39:32.506Z,53.11
2019-01-12T18:42:03.848Z,52.62
2019-01-12T18:44:34.980Z,53.44
2019-01-12T18:47:06.118Z,52.99
2019-01-12T18:49:37.451Z,52.41
2019-01-12T18:52:08.811Z,51.98
2019-01-12T18:54:41.484Z,52.93
2019-01-12T18:57:12.768Z,52.38
2019-01-12T18:59:44.098Z,53.46
2019-01-12T19:02:15.246Z,52.65
2019-01-12T19:04:46.536Z,52.33
2019-01-12T19:07:17.740Z,52.55
2019-01-12T19:09:48.875Z,52.82
2019-01-12T19:12:20.093Z,53.96
2019-01-12T19:14:51.392Z,53.52
2019-01-12T19:17:22.625Z,52.50
2019-01-12T19:19:53.994Z,53.40
2019-01-12T19:22:25.231Z,52.68
2019-01-12T19:24:56.510Z,53.21
2019-01-12T19:27:27.693Z,52.45
2019-01-12T19:29:59.029Z,53.06
2019-01-12T19:32:30.402Z,52.40
2019-01-12T19:35:01.490Z,52.89
2019-01-12T19:37:33.941Z,53.08
2019-01-12T19:40:06.829Z,52.82
2019-01-12T19:42:38.104Z,52.14
2019-01-12T19:45:10.587Z,51.89
2019-01-12T19:47:41.819Z,53.29
2019-01-12T19:50:18.772Z,53.16
2019-01-12T19:52:50.043Z,53.18
2019-01-12T19:55:21.309Z,53.35
2019-01-12T19:57:52.345Z,52.72
2019-01-12T20:00:26.876Z,52.84
2019-01-12T20:02:58.140Z,53.10
2019-01-12T20:05:29.444Z,54.46
2019-01-12T20:08:00.633Z,54.39
2019-01-12T20:10:31.933Z,54.36
2019-01-12T20:13:03.282Z,53.56
2019-01-12T20:15:34.594Z,54.15
2019-01-12T20:18:05.859Z,54.41
2019-01-12T20:20:37.075Z,53.79
2019-01-12T20:23:08.406Z,54.44
2019-01-12T20:25:39.834Z,53.77
2019-01-12T20:28:17.590Z,54.61
2019-01-12T20:31:31.616Z,54.94
2019-01-12T20:34:33.007Z,54.93
2019-01-12T20:37:57.100Z,56.05
2019-01-12T20:40:58.802Z,56.42
2019-01-12T20:43:54.506Z,56.38
2019-01-12T20:47:11.559Z,57.25
2019-01-12T20:49:54.790Z,56.62
2019-01-12T20:52:56.985Z,57.17
2019-01-12T20:56:02.983Z,57.86
2019-01-12T20:59:27.950Z,56.94
2019-01-12T21:02:52.963Z,57.85
2019-01-12T21:06:07.328Z,57.38
2019-01-12T21:09:28.805Z,58.34
2019-01-12T21:12:32.611Z,59.57
2019-01-12T21:15:21.049Z,59.05
2019-01-12T21:17:52.376Z,59.99
2019-01-12T21:20:26.097Z,60.12
2019-01-12T21:22:57.745Z,60.12
2019-01-12T21:25:29.093Z,60.07
2019-01-12T21:28:00.703Z,60.48
2019-01-12T21:30:32.134Z,60.29
2019-01-12T21:33:04.556Z,60.60
2019-01-12T21:35:36.086Z,61.11
2019-01-12T21:38:07.569Z,61.22
2019-01-12T21:40:39.031Z,60.36
2019-01-12T21:43:10.513Z,60.39
2019-01-12T21:45:41.978Z,60.51
2019-01-12T21:48:14.457Z,59.87
2019-01-12T21:50:45.896Z,60.56
2019-01-12T21:53:17.274Z,61.12
2019-01-12T21:55:48.685Z,56.52
2019-01-12T21:58:20.005Z,54.60
2019-01-12T22:00:51.344Z,55.22
2019-01-12T22:03:22.604Z,55.33
2019-01-12T22:05:53.960Z,55.46
2019-01-12T22:08:25.046Z,55.81
2019-01-12T22:10:56.478Z,55.36
2019-01-12T22:13:27.678Z,56.00
2019-01-12T22:15:59.014Z,55.57
2019-01-12T22:18:30.172Z,55.73
2019-01-12T22:21:01.322Z,56.17
2019-01-12T22:23:33.209Z,56.60
2019-01-12T22:26:04.322Z,57.08
2019-01-12T22:28:35.723Z,57.28
2019-01-12T22:31:06.973Z,57.80
2019-01-12T22:33:38.076Z,57.51
2019-01-12T22:36:10.547Z,57.79
2019-01-12T22:38:41.834Z,58.41
2019-01-12T22:41:13.219Z,58.49
2019-01-12T22:43:44.451Z,58.09
2019-01-12T22:46:15.676Z,57.75
2019-01-12T22:48:46.967Z,57.47
2019-01-12T22:51:18.317Z,57.17
2019-01-12T22:53:49.418Z,56.49
2019-01-12T22:56:20.838Z,55.94
2019-01-12T22:58:52.024Z,56.41
2019-01-12T23:01:53.277Z,56.75
2019-01-12T23:04:26.362Z,56.80
2019-01-12T23:06:57.682Z,56.84
2019-01-12T23:09:29.064Z,57.17
2019-01-12T23:12:00.352Z,57.42
2019-01-12T23:14:33.035Z,57.46
2019-01-12T23:17:05.773Z,57.13
2019-01-12T23:19:37.185Z,56.41
2019-01-12T23:22:08.354Z,57.05
2019-01-12T23:24:39.550Z,56.71
2019-01-12T23:27:10.718Z,56.83
2019-01-12T23:29:42.100Z,56.82
2019-01-12T23:32:13.590Z,56.57
2019-01-12T23:34:44.918Z,56.35
2019-01-12T23:37:16.087Z,56.54
2019-01-12T23:39:47.430Z,56.64
2019-01-12T23:42:18.825Z,56.81
2019-01-12T23:44:50.026Z,56.86
2019-01-12T23:47:21.184Z,56.88
2019-01-12T23:49:52.384Z,57.18
2019-01-12T23:52:23.408Z,56.95
2019-01-12T23:54:54.676Z,56.86
2019-01-12T23:57:25.947Z,56.72
2019-01-12T23:59:57.114Z,56.14
